Time;durP1;ratioP1;P1;durP2;ratioP2;P2;SDS_P1;SDS_P2;PMS_P1;PMS_P2;Temp;Humidity;BMP_temperature;BMP_pressure;BME280_temperature;BME280_humidity;BME280_pressure;Samples;Min_cycle;Max_cycle;Signal;HPM_P1;HPM_P2
2022/01/27 00:00:22;;;;;;;94.00;30.35;;;-1.10;99.90;;;-2.59;100.00;98950.75;5029919;28;20477;-68
2022/01/27 00:05:22;;;;;;;80.72;27.45;;;-1.10;99.90;;;-2.63;100.00;98943.00;5030752;28;20122;-67
2022/01/27 00:08:13;;;;;;;121.97;31.42;;;-1.10;99.90;;;-2.71;100.00;98946.97;5032213;28;20145;-69
2022/01/27 00:13:15;;;;;;;125.03;34.92;;;-1.00;99.90;;;-2.66;100.00;98942.91;5029971;28;20099;-68
2022/01/27 00:15:47;;;;;;;108.03;28.73;;;-1.10;99.90;;;-2.76;100.00;98964.59;5030904;28;20046;-68
2022/01/27 00:18:18;;;;;;;135.10;35.72;;;-1.10;99.90;;;-2.76;100.00;98956.97;5029991;28;20045;-69
2022/01/27 00:20:48;;;;;;;102.65;30.55;;;-1.10;99.90;;;-2.65;100.00;98949.72;5028566;28;20052;-68
2022/01/27 00:23:16;;;;;;;90.20;28.88;;;-1.10;99.90;;;-2.43;100.00;98948.72;5028290;28;20057;-68
2022/01/27 00:25:44;;;;;;;103.90;29.50;;;-1.10;99.90;;;-2.43;100.00;98944.47;5029329;28;20521;-69
2022/01/27 00:28:11;;;;;;;180.95;35.78;;;-1.10;99.90;;;-2.54;100.00;98945.81;5031213;28;20132;-68
2022/01/27 00:30:39;;;;;;;223.25;40.28;;;-1.10;99.90;;;-2.50;100.00;98931.53;5034521;28;20132;-68
2022/01/27 00:33:07;;;;;;;213.88;36.47;;;-1.10;99.90;;;-2.49;100.00;98930.72;5025492;28;20506;-68
2022/01/27 00:35:35;;;;;;;191.48;36.72;;;-1.10;99.90;;;-2.58;100.00;98931.28;5028455;28;20496;-68
2022/01/27 00:38:02;;;;;;;173.43;38.10;;;-1.10;99.90;;;-2.51;100.00;98935.75;5029063;28;20641;-68
2022/01/27 00:40:29;;;;;;;125.35;31.95;;;-1.10;99.90;;;-2.45;100.00;98932.53;5027243;28;20124;-69
2022/01/27 00:42:57;;;;;;;94.28;29.65;;;-1.10;99.90;;;-2.48;100.00;98938.41;5028296;28;20061;-68
2022/01/27 00:45:25;;;;;;;88.05;29.50;;;-1.10;99.90;;;-2.48;100.00;98930.78;5026724;28;20494;-68
2022/01/27 00:47:51;;;;;;;114.85;29.33;;;-1.10;99.90;;;-2.58;100.00;98928.75;5028364;28;20049;-67
2022/01/27 00:50:19;;;;;;;123.95;32.05;;;-1.10;99.90;;;-2.75;100.00;98930.78;5028194;28;20041;-68
2022/01/27 00:52:51;;;;;;;151.27;34.30;;;-1.10;99.90;;;-2.65;100.00;98934.47;5027057;28;20073;-69
2022/01/27 00:55:18;;;;;;;106.53;32.47;;;-1.10;99.90;;;-2.56;100.00;98927.97;5027406;28;20058;-69
2022/01/27 01:00:13;;;;;;;119.00;35.08;;;-1.10;99.90;;;-2.57;100.00;98925.41;5025896;28;20456;-69
2022/01/27 01:02:49;;;;;;;134.93;33.28;;;-1.10;99.90;;;-2.49;100.00;98925.63;5027427;28;20073;-68
2022/01/27 01:05:46;;;;;;;79.15;29.60;;;-1.10;99.90;;;-2.42;100.00;98918.22;5027190;28;20041;-69
2022/01/27 01:16:25;;;;;;;135.10;32.97;;;-1.00;99.90;;;-2.48;100.00;98922.28;5024204;28;20052;-68
2022/01/27 01:19:02;;;;;;;180.50;36.85;;;-1.10;99.90;;;-2.57;100.00;98925.41;5027193;28;20686;-68
2022/01/27 01:32:49;;;;;;;111.32;33.83;;;-1.10;99.90;;;-2.32;100.00;98934.66;5026357;28;20136;-67
2022/01/27 01:35:18;;;;;;;120.72;30.77;;;-1.10;99.90;;;-2.47;100.00;98935.03;5027797;28;20137;-68
2022/01/27 01:37:45;;;;;;;120.90;32.65;;;-1.10;99.90;;;-2.56;100.00;98924.56;5028279;28;20071;-68
2022/01/27 01:40:16;;;;;;;91.07;27.63;;;-1.10;99.90;;;-2.66;100.00;98936.16;5028709;28;20079;-68
2022/01/27 01:42:44;;;;;;;80.45;26.55;;;-1.10;99.90;;;-2.53;100.00;98928.09;5028223;28;20087;-68
2022/01/27 01:45:17;;;;;;;101.95;28.38;;;-1.20;99.90;;;-2.66;100.00;98935.28;5029342;28;20049;-69
2022/01/27 01:47:45;;;;;;;102.75;32.53;;;-1.10;99.90;;;-2.60;100.00;98938.88;5029354;28;20072;-69
2022/01/27 01:50:15;;;;;;;87.45;29.33;;;-1.10;99.90;;;-2.48;100.00;98930.78;5025742;28;20135;-68
2022/01/27 01:52:44;;;;;;;107.75;31.40;;;-1.10;99.90;;;-2.72;100.00;98937.63;5026798;28;20101;-69
2022/01/27 01:55:12;;;;;;;89.75;28.55;;;-1.10;99.90;;;-2.61;100.00;98934.59;5028085;28;20053;-69
2022/01/27 01:57:40;;;;;;;97.00;31.92;;;-1.10;99.90;;;-2.67;100.00;98925.91;5030270;28;20141;-69
2022/01/27 02:00:09;;;;;;;96.45;30.95;;;-1.10;99.90;;;-2.62;100.00;98935.44;5028168;28;20053;-69
2022/01/27 02:02:37;;;;;;;97.47;30.40;;;-1.10;99.90;;;-2.61;100.00;98929.50;5028812;28;20045;-69
2022/01/27 02:05:06;;;;;;;119.97;32.63;;;-1.10;99.90;;;-2.53;100.00;98932.31;5029506;28;20111;-69
2022/01/27 02:07:53;;;;;;;90.53;27.80;;;-1.10;99.90;;;-2.67;100.00;98936.94;5027740;28;20140;-69
2022/01/27 02:17:58;;;;;;;159.55;32.85;;;-1.10;99.90;;;-2.72;100.00;98922.38;5013624;28;20067;-68
2022/01/27 02:19:15;;;;;;;146.30;35.63;;;-1.10;99.90;;;-2.73;100.00;98931.69;5027837;28;20127;-69
2022/01/27 02:21:58;;;;;;;126.82;34.13;;;-1.10;99.90;;;-2.69;100.00;98925.88;5029078;28;20076;-68
2022/01/27 02:24:29;;;;;;;100.53;29.95;;;-1.10;99.90;;;-2.67;100.00;98936.09;5025361;28;20521;-69
2022/01/27 02:26:58;;;;;;;104.03;31.13;;;-1.10;99.90;;;-2.60;100.00;98938.88;5027980;28;20164;-69
2022/01/27 02:29:26;;;;;;;96.88;29.17;;;-1.10;99.90;;;-2.55;100.00;98951.75;5027794;28;20067;-69
2022/01/27 02:31:56;;;;;;;108.38;34.08;;;-1.10;99.90;;;-2.67;100.00;98951.34;5029155;28;20133;-69
2022/01/27 02:34:24;;;;;;;87.85;27.73;;;-1.10;99.90;;;-2.62;100.00;98926.94;5041419;28;20072;-69
2022/01/27 02:36:51;;;;;;;81.63;28.67;;;-1.10;99.90;;;-2.63;100.00;98926.06;5027064;28;20129;-68
2022/01/27 02:39:19;;;;;;;126.25;33.65;;;-1.10;99.90;;;-2.53;100.00;98917.91;5031089;28;20060;-69
2022/01/27 02:41:49;;;;;;;124.43;33.47;;;-1.10;99.90;;;-2.56;100.00;98919.50;5032512;28;20053;-69
2022/01/27 02:44:29;;;;;;;113.60;30.95;;;-1.10;99.90;;;-2.71;100.00;98924.97;5029621;28;20125;-69
2022/01/27 02:46:56;;;;;;;107.70;31.48;;;-1.10;99.90;;;-2.72;100.00;98912.22;5033389;28;20061;-69
2022/01/27 02:49:24;;;;;;;110.95;33.78;;;-1.10;99.90;;;-2.64;100.00;98893.84;5036390;28;20041;-69
2022/01/27 02:51:52;;;;;;;123.22;34.00;;;-1.10;99.90;;;-2.56;100.00;98877.13;5031919;28;20076;-68
2022/01/27 02:54:20;;;;;;;78.47;24.67;;;-1.10;99.90;;;-2.67;100.00;98887.78;5034699;28;20155;-69
2022/01/27 02:56:47;;;;;;;127.28;35.28;;;-1.10;99.90;;;-2.64;100.00;98886.22;5032704;28;20470;-68
2022/01/27 02:59:16;;;;;;;99.25;29.52;;;-1.10;99.90;;;-2.68;100.00;98881.00;5032212;28;20148;-69
2022/01/27 03:01:48;;;;;;;113.63;31.50;;;-1.10;99.90;;;-2.60;100.00;98867.72;5031738;28;20500;-69
2022/01/27 03:04:17;;;;;;;132.45;32.20;;;-1.10;99.90;;;-2.69;100.00;98876.72;5029200;28;20080;-69
2022/01/27 03:06:46;;;;;;;157.00;35.05;;;-1.10;99.90;;;-2.68;100.00;98866.59;5030149;28;20478;-69
2022/01/27 03:09:14;;;;;;;152.20;33.97;;;-1.20;99.90;;;-2.61;100.00;98860.88;5032022;28;20132;-68
2022/01/27 03:11:50;;;;;;;93.93;31.55;;;-1.10;99.90;;;-2.49;100.00;98860.38;5031768;28;20152;-68
2022/01/27 03:14:23;;;;;;;71.40;25.30;;;-1.20;99.90;;;-2.57;100.00;98865.25;5028471;28;20052;-68
2022/01/27 03:16:54;;;;;;;85.53;28.05;;;-1.10;99.90;;;-2.62;100.00;98851.56;5030219;28;20047;-68
2022/01/27 03:19:21;;;;;;;91.82;28.80;;;-1.10;99.90;;;-2.54;100.00;98847.53;5029046;28;20049;-68
2022/01/27 03:21:49;;;;;;;89.82;26.35;;;-1.10;99.90;;;-2.69;100.00;98864.91;5031431;28;20069;-68
2022/01/27 03:24:17;;;;;;;86.45;25.95;;;-1.10;99.90;;;-2.69;100.00;98851.31;5029889;28;20132;-69
2022/01/27 03:26:45;;;;;;;81.10;25.98;;;-1.10;99.90;;;-2.52;100.00;98832.34;5032413;28;20049;-68
2022/01/27 03:29:12;;;;;;;95.80;26.70;;;-1.20;99.90;;;-2.55;100.00;98853.47;5030549;28;20552;-68
2022/01/27 03:31:40;;;;;;;105.15;28.83;;;-1.20;99.90;;;-2.67;100.00;98855.59;5030768;28;20056;-68
2022/01/27 03:34:06;;;;;;;74.28;25.45;;;-1.20;99.90;;;-2.63;100.00;98851.50;5045733;28;20133;-68
2022/01/27 03:36:33;;;;;;;93.78;28.17;;;-1.10;99.90;;;-2.57;100.00;98857.63;5031498;28;20080;-68
2022/01/27 03:39:00;;;;;;;95.50;25.23;;;-1.10;99.90;;;-2.52;100.00;98842.50;5031016;28;20095;-69
2022/01/27 03:41:32;;;;;;;95.75;26.83;;;-1.10;99.90;;;-2.66;100.00;98851.41;5030877;28;20077;-68
2022/01/27 03:43:59;;;;;;;91.65;26.17;;;-1.10;99.90;;;-2.63;100.00;98857.44;5030531;28;20182;-68
2022/01/27 03:46:26;;;;;;;130.90;29.30;;;-1.10;99.90;;;-2.61;100.00;98853.25;5032661;28;20076;-68
2022/01/27 03:48:54;;;;;;;90.30;24.67;;;-1.10;99.90;;;-2.58;100.00;98842.31;5030581;28;20569;-67
2022/01/27 03:51:21;;;;;;;109.78;29.65;;;-1.10;99.90;;;-2.65;100.00;98840.41;5030276;28;20128;-69
2022/01/27 03:53:48;;;;;;;90.32;26.20;;;-1.10;99.90;;;-2.66;100.00;98846.31;5029481;28;20463;-69
2022/01/27 03:56:16;;;;;;;107.30;30.85;;;-1.10;99.90;;;-2.63;100.00;98846.41;5030786;28;20052;-68
2022/01/27 03:58:43;;;;;;;87.18;26.38;;;-1.10;99.90;;;-2.67;100.00;98853.06;5029341;28;20047;-69
2022/01/27 04:01:10;;;;;;;92.57;28.92;;;-1.10;99.90;;;-2.58;100.00;98852.47;5029819;28;20060;-68
2022/01/27 04:03:38;;;;;;;104.15;32.13;;;-1.10;99.90;;;-2.55;100.00;98843.28;5032491;28;20120;-68
2022/01/27 04:06:09;;;;;;;115.32;27.35;;;-1.10;99.90;;;-2.52;100.00;98828.13;5030675;28;20565;-68
2022/01/27 04:08:39;;;;;;;79.63;27.05;;;-1.10;99.90;;;-2.42;100.00;98818.22;5030315;28;20050;-69
2022/01/27 04:11:08;;;;;;;68.90;22.15;;;-1.10;99.90;;;-2.50;100.00;98834.94;5030533;28;20609;-68
2022/01/27 04:13:36;;;;;;;63.72;23.05;;;-1.10;99.90;;;-2.42;100.00;98805.50;5032304;28;20498;-69
2022/01/27 04:16:04;;;;;;;102.03;26.90;;;-1.10;99.90;;;-2.52;100.00;98824.72;5029455;28;20132;-68
2022/01/27 04:18:32;;;;;;;62.70;19.48;;;-1.10;99.90;;;-2.46;100.00;98824.00;5029336;28;20136;-69
2022/01/27 04:20:58;;;;;;;62.95;23.15;;;-1.10;99.90;;;-2.41;100.00;98808.09;5029717;28;20056;-67
2022/01/27 04:23:26;;;;;;;100.72;26.05;;;-1.10;99.90;;;-2.58;100.00;98820.31;5030654;28;20501;-68
2022/01/27 04:25:53;;;;;;;66.55;23.13;;;-1.10;99.90;;;-2.47;100.00;98813.00;5031809;28;20057;-67
2022/01/27 04:28:26;;;;;;;60.60;20.58;;;-1.10;99.90;;;-2.42;100.00;98813.97;5033435;28;20081;-69
2022/01/27 04:30:55;;;;;;;78.50;24.17;;;-1.10;99.90;;;-2.43;100.00;98808.88;5031493;28;20132;-67
2022/01/27 04:33:26;;;;;;;67.40;23.73;;;-1.10;99.90;;;-2.43;100.00;98811.41;5030266;28;20133;-68
2022/01/27 04:35:57;;;;;;;68.22;22.98;;;-1.10;99.90;;;-2.32;100.00;98826.16;5030150;28;20512;-69
2022/01/27 04:48:24;;;;;;;96.13;24.77;;;-1.00;99.90;;;-2.41;100.00;98838.59;5029465;28;20053;-68
2022/01/27 04:50:53;;;;;;;52.92;18.90;;;-0.90;99.90;;;-2.27;100.00;98830.50;5031335;28;20046;-69
2022/01/27 04:53:27;;;;;;;76.82;22.38;;;-0.90;99.90;;;-2.28;100.00;98839.84;5028533;28;20552;-69
2022/01/27 04:56:16;;;;;;;73.18;22.85;;;-1.00;99.90;;;-2.34;100.00;98829.47;5029574;28;20401;-69
2022/01/27 04:58:48;;;;;;;60.83;20.70;;;-0.90;99.90;;;-2.23;100.00;98827.25;5026063;28;20502;-70
2022/01/27 05:01:17;;;;;;;80.07;22.90;;;-0.90;99.90;;;-2.19;100.00;98840.09;5029055;28;20131;-69
2022/01/27 05:03:53;;;;;;;74.43;23.60;;;-0.90;99.90;;;-2.14;100.00;98840.22;5029169;28;20053;-70
2022/01/27 05:06:20;;;;;;;96.15;26.30;;;-0.90;99.90;;;-2.27;100.00;98856.81;5029575;28;20071;-70
2022/01/27 05:08:47;;;;;;;69.93;22.55;;;-0.90;99.90;;;-2.28;100.00;98844.91;5028591;28;20057;-70
2022/01/27 05:11:26;;;;;;;56.10;19.80;;;-0.80;99.90;;;-2.29;100.00;98842.31;5028732;28;20528;-69
2022/01/27 05:16:23;;;;;;;81.93;24.25;;;-0.80;99.90;;;-2.26;100.00;98848.34;5026821;28;20048;-69
2022/01/27 05:18:50;;;;;;;70.53;23.05;;;-0.80;99.90;;;-2.15;100.00;98844.41;5028551;28;20057;-69
2022/01/27 05:21:17;;;;;;;63.42;22.50;;;-0.80;99.90;;;-2.09;100.00;98859.00;5028839;28;20223;-69
2022/01/27 05:23:44;;;;;;;44.13;18.23;;;-0.80;99.90;;;-2.14;100.00;98853.78;5029026;28;20128;-69
2022/01/27 05:26:12;;;;;;;53.83;19.75;;;-0.70;99.90;;;-2.02;100.00;98852.41;5029032;28;20575;-70
2022/01/27 05:28:39;;;;;;;58.75;21.58;;;-0.70;99.90;;;-1.95;100.00;98851.75;5028399;28;20050;-69
2022/01/27 05:31:06;;;;;;;51.20;19.55;;;-0.80;99.90;;;-2.10;100.00;98854.72;5029870;28;20064;-68
2022/01/27 05:33:33;;;;;;;53.38;20.95;;;-0.70;99.90;;;-2.04;100.00;98854.06;5029754;28;20057;-70
2022/01/27 05:36:01;;;;;;;45.85;18.10;;;-0.60;99.90;;;-1.95;100.00;98852.63;5030502;28;20137;-69
2022/01/27 05:38:28;;;;;;;47.13;19.70;;;-0.60;99.90;;;-1.94;100.00;98853.47;5028753;28;20124;-69
2022/01/27 05:40:54;;;;;;;58.05;20.52;;;-0.60;99.90;;;-1.98;100.00;98837.28;5027525;28;20128;-69
2022/01/27 05:43:21;;;;;;;49.58;19.67;;;-0.60;99.90;;;-1.96;100.00;98843.28;5028535;28;20060;-68
2022/01/27 05:45:48;;;;;;;45.08;18.48;;;-0.60;99.90;;;-1.89;100.00;98841.75;5027009;28;20189;-70
2022/01/27 05:48:15;;;;;;;59.88;22.58;;;-0.60;99.90;;;-1.96;100.00;98842.38;5029248;28;20091;-69
2022/01/27 05:50:42;;;;;;;54.45;20.95;;;-0.60;99.90;;;-2.01;100.00;98844.81;5029553;28;20041;-69
2022/01/27 05:53:09;;;;;;;51.20;18.75;;;-0.50;99.90;;;-1.89;100.00;98844.31;5028833;28;20084;-69
2022/01/27 05:55:36;;;;;;;62.33;20.65;;;-0.60;99.90;;;-1.99;100.00;98835.53;5029034;28;20136;-68
2022/01/27 05:58:03;;;;;;;74.88;23.15;;;-0.50;99.90;;;-1.87;100.00;98831.59;5028203;28;20091;-69
2022/01/27 06:00:30;;;;;;;71.70;24.70;;;-0.50;99.90;;;-1.77;100.00;98810.69;5026687;28;20149;-69
2022/01/27 06:02:57;;;;;;;50.78;21.15;;;-0.60;99.90;;;-1.71;100.00;98795.53;5028710;28;20049;-69
2022/01/27 06:05:26;;;;;;;53.20;21.25;;;-0.50;99.90;;;-1.83;100.00;98807.97;5030679;28;20490;-69
2022/01/27 06:07:53;;;;;;;62.40;22.90;;;-0.50;99.90;;;-1.80;100.00;98811.47;5026860;28;20416;-69
2022/01/27 06:10:20;;;;;;;61.40;22.85;;;-0.50;99.90;;;-1.64;100.00;98791.47;5028488;28;20477;-70
2022/01/27 06:12:53;;;;;;;55.13;20.20;;;-0.50;99.90;;;-1.81;100.00;98813.97;5028401;28;20163;-69
2022/01/27 06:15:21;;;;;;;49.83;18.73;;;-0.50;99.90;;;-1.70;100.00;98821.03;5030440;28;20566;-69
2022/01/27 06:17:48;;;;;;;46.40;17.05;;;-0.50;99.90;;;-1.78;100.00;98829.31;5026469;28;20042;-69
2022/01/27 06:20:17;;;;;;;58.83;19.90;;;-0.50;99.90;;;-1.86;100.00;98826.56;5028222;28;20141;-69
2022/01/27 06:22:44;;;;;;;64.45;23.60;;;-0.50;99.90;;;-1.86;100.00;98829.09;5025927;28;20092;-69
2022/01/27 06:25:13;;;;;;;54.65;18.92;;;-0.50;99.90;;;-1.83;100.00;98818.16;5026464;28;20053;-69
2022/01/27 06:27:41;;;;;;;58.83;19.70;;;-0.40;99.90;;;-1.80;100.00;98820.75;5028331;28;20172;-70
2022/01/27 06:30:11;;;;;;;50.40;20.80;;;-0.50;99.90;;;-1.76;100.00;98802.22;5027336;28;20387;-68
2022/01/27 06:32:38;;;;;;;46.47;18.08;;;-0.50;99.90;;;-1.77;100.00;98813.22;5027915;28;20067;-68
2022/01/27 06:35:06;;;;;;;54.85;20.25;;;-0.60;99.90;;;-1.78;100.00;98808.94;5028722;28;20060;-69
2022/01/27 06:37:35;;;;;;;46.17;18.00;;;-0.50;99.90;;;-1.78;100.00;98803.84;5028408;28;20133;-69
2022/01/27 06:40:05;;;;;;;55.40;19.33;;;-0.60;99.90;;;-1.97;100.00;98818.63;5026962;28;20420;-69
2022/01/27 06:42:31;;;;;;;68.10;23.38;;;-0.60;99.90;;;-1.85;100.00;98807.91;5026943;28;20311;-69
2022/01/27 06:44:59;;;;;;;46.10;17.42;;;-0.50;99.90;;;-1.84;100.00;98798.63;5026135;28;20140;-69
2022/01/27 06:47:25;;;;;;;55.53;19.23;;;-0.60;99.90;;;-1.77;100.00;98801.34;5027619;28;20120;-68
2022/01/27 06:49:52;;;;;;;63.33;20.17;;;-0.60;99.90;;;-1.87;100.00;98791.78;5028572;28;20140;-68
2022/01/27 06:52:21;;;;;;;51.72;18.83;;;-0.60;99.90;;;-1.90;100.00;98806.94;5027930;28;20053;-69
2022/01/27 06:54:50;;;;;;;66.00;21.38;;;-0.50;99.90;;;-2.05;100.00;98806.50;5028127;28;20120;-69
2022/01/27 06:57:17;;;;;;;55.88;19.25;;;-0.50;99.90;;;-1.90;100.00;98800.16;5028298;28;20045;-68
2022/01/27 06:59:44;;;;;;;82.25;24.42;;;-0.60;99.90;;;-1.89;100.00;98803.59;5027796;28;20124;-69
2022/01/27 07:02:11;;;;;;;62.25;20.40;;;-0.60;99.90;;;-2.00;100.00;98802.44;5026889;28;20519;-68
2022/01/27 07:04:38;;;;;;;95.32;25.05;;;-0.60;99.90;;;-2.01;100.00;98798.16;5031461;28;20073;-68
2022/01/27 07:07:05;;;;;;;74.63;19.80;;;-0.70;99.90;;;-2.18;100.00;98801.09;5028206;28;20177;-69
2022/01/27 07:09:32;;;;;;;85.22;23.17;;;-0.70;99.90;;;-2.29;100.00;98799.09;5029316;28;20058;-68
2022/01/27 07:11:59;;;;;;;86.35;22.77;;;-0.70;99.90;;;-2.30;100.00;98810.94;5030084;28;20132;-69
2022/01/27 07:14:26;;;;;;;103.95;24.73;;;-0.80;99.90;;;-2.40;100.00;98812.34;5026608;28;20121;-69
2022/01/27 07:16:55;;;;;;;87.72;23.60;;;-0.80;99.90;;;-2.35;100.00;98809.94;5027790;28;20049;-69
2022/01/27 07:19:22;;;;;;;74.03;20.00;;;-0.80;99.90;;;-2.45;100.00;98788.47;5028170;28;20045;-69
2022/01/27 07:21:49;;;;;;;104.05;24.15;;;-0.80;99.90;;;-2.50;100.00;98805.28;5043833;28;20144;-68
2022/01/27 07:24:16;;;;;;;79.35;21.17;;;-0.80;99.90;;;-2.44;100.00;98808.00;5028641;28;20148;-69
2022/01/27 07:26:43;;;;;;;144.07;21.98;;;-0.90;99.90;;;-2.52;100.00;98812.00;5029977;28;20144;-69
2022/01/27 07:29:10;;;;;;;127.63;26.17;;;-0.90;99.90;;;-2.54;100.00;98801.78;5030557;28;20212;-69
2022/01/27 07:31:37;;;;;;;121.00;22.15;;;-0.90;99.90;;;-2.48;100.00;98808.75;5031655;28;20462;-68
2022/01/27 07:34:04;;;;;;;101.22;22.98;;;-0.90;99.90;;;-2.48;100.00;98813.81;5028571;28;20045;-68
2022/01/27 07:36:31;;;;;;;93.18;25.30;;;-1.00;99.90;;;-2.43;100.00;98796.16;5030287;28;20253;-68
2022/01/27 07:38:59;;;;;;;92.43;20.85;;;-1.00;99.90;;;-2.41;100.00;98797.91;5031957;28;20148;-69
2022/01/27 07:41:26;;;;;;;118.97;25.30;;;-1.00;99.90;;;-2.47;100.00;98787.56;5030209;28;20060;-68
2022/01/27 07:43:53;;;;;;;93.93;20.55;;;-1.00;99.90;;;-2.54;100.00;98803.47;5030409;28;20059;-68
2022/01/27 07:46:20;;;;;;;84.82;21.52;;;-1.10;99.90;;;-2.55;100.00;98782.28;5033078;28;20060;-69
2022/01/27 07:48:47;;;;;;;99.97;23.70;;;-1.10;99.90;;;-2.62;100.00;98790.53;5030192;28;20137;-68
2022/01/27 07:51:16;;;;;;;89.03;21.40;;;-1.20;99.90;;;-2.47;100.00;98779.09;5030005;28;20519;-67
2022/01/27 07:53:43;;;;;;;84.93;21.70;;;-1.20;99.90;;;-2.64;100.00;98787.09;5027806;28;20081;-68
2022/01/27 07:56:28;;;;;;;79.85;20.40;;;-1.10;99.90;;;-2.49;100.00;98795.97;5029499;28;20083;-67
2022/01/27 07:58:55;;;;;;;102.38;22.35;;;-1.10;99.90;;;-2.54;100.00;98790.75;5028987;28;20048;-66
2022/01/27 08:01:22;;;;;;;75.63;21.05;;;-1.10;99.90;;;-2.52;100.00;98787.44;5026889;28;20046;-67
2022/01/27 08:03:50;;;;;;;57.92;17.00;;;-1.00;99.90;;;-2.55;100.00;98777.19;5028436;28;20103;-66
2022/01/27 08:06:17;;;;;;;77.68;21.38;;;-1.10;99.90;;;-2.60;100.00;98795.66;5012127;28;20129;-68
2022/01/27 08:08:44;;;;;;;65.72;19.15;;;-1.00;99.90;;;-2.63;100.00;98810.81;5029612;28;20045;-67
2022/01/27 08:11:11;;;;;;;68.30;19.63;;;-1.00;99.90;;;-2.51;100.00;98785.75;5029724;28;20183;-68
2022/01/27 08:13:38;;;;;;;73.22;19.30;;;-1.00;99.90;;;-2.56;100.00;98795.78;5029912;28;20053;-67
2022/01/27 08:16:06;;;;;;;60.75;17.30;;;-1.10;99.90;;;-2.54;100.00;98799.25;5030832;28;20095;-68
2022/01/27 08:18:49;;;;;;;69.88;19.98;;;-1.10;99.90;;;-2.50;100.00;98789.19;5029322;28;20128;-67
2022/01/27 08:21:16;;;;;;;73.88;20.23;;;-1.10;99.90;;;-2.63;100.00;98808.28;5028037;28;20176;-67
2022/01/27 08:23:44;;;;;;;63.55;20.48;;;-1.00;99.90;;;-2.44;100.00;98790.22;5027088;28;20057;-67
2022/01/27 08:26:15;;;;;;;65.72;20.05;;;-1.00;99.90;;;-2.59;100.00;98805.03;5027112;28;20096;-68
2022/01/27 08:28:51;;;;;;;72.07;19.98;;;-1.00;99.90;;;-2.41;100.00;98780.13;5028667;28;20493;-68
2022/01/27 08:31:19;;;;;;;52.17;16.58;;;-1.00;99.90;;;-2.58;100.00;98800.00;5029103;28;20393;-69
2022/01/27 08:33:46;;;;;;;76.30;20.10;;;-1.00;99.90;;;-2.59;100.00;98788.09;5028435;28;20049;-68
2022/01/27 08:36:12;;;;;;;77.20;20.65;;;-1.10;99.90;;;-2.55;100.00;98784.81;5029009;28;20081;-68
2022/01/27 08:38:43;;;;;;;52.22;17.02;;;-1.00;99.90;;;-2.41;100.00;98771.63;5029100;28;20123;-68
2022/01/27 08:41:10;;;;;;;74.85;17.83;;;-1.10;99.90;;;-2.56;100.00;98777.13;5028618;28;20045;-68
2022/01/27 08:43:37;;;;;;;67.70;20.98;;;-1.10;99.90;;;-2.50;100.00;98772.25;5024835;28;20085;-68
2022/01/27 08:46:04;;;;;;;57.13;17.58;;;-1.00;99.90;;;-2.62;100.00;98793.09;5028153;28;20054;-68
2022/01/27 08:48:32;;;;;;;47.72;14.57;;;-1.10;99.90;;;-2.59;100.00;98765.22;5028410;28;20060;-68
2022/01/27 08:51:01;;;;;;;49.72;19.13;;;-1.10;99.90;;;-2.46;100.00;98770.63;5027073;28;20103;-68
2022/01/27 08:53:48;;;;;;;56.80;17.75;;;-1.00;99.90;;;-2.66;100.00;98785.34;5029560;28;20143;-69
2022/01/27 08:56:16;;;;;;;75.20;21.40;;;-1.10;99.90;;;-2.60;100.00;98783.84;5029191;28;20176;-66
2022/01/27 08:58:44;;;;;;;78.45;19.30;;;-1.00;99.90;;;-2.64;100.00;98786.25;5028129;28;20055;-69
2022/01/27 09:01:11;;;;;;;59.75;19.02;;;-1.10;99.90;;;-2.49;100.00;98783.25;5029181;28;20053;-68
2022/01/27 09:03:39;;;;;;;71.20;20.42;;;-1.10;99.90;;;-2.67;100.00;98783.59;5029494;28;20472;-67
2022/01/27 09:06:06;;;;;;;53.78;16.38;;;-1.10;99.90;;;-2.65;100.00;98789.59;5033284;28;20046;-67
2022/01/27 09:08:41;;;;;;;64.35;20.67;;;-1.10;99.90;;;-2.63;100.00;98798.97;5029807;28;20055;-67
2022/01/27 09:11:08;;;;;;;64.32;21.38;;;-1.10;99.90;;;-2.48;100.00;98774.84;5029458;28;20049;-68
2022/01/27 09:13:37;;;;;;;41.38;15.05;;;-1.10;99.90;;;-2.44;100.00;98769.00;5029456;28;20513;-68
2022/01/27 09:16:06;;;;;;;45.28;17.65;;;-1.10;99.90;;;-2.60;100.00;98798.19;5028652;28;20058;-68
2022/01/27 09:18:33;;;;;;;62.13;19.75;;;-1.10;99.90;;;-2.58;100.00;98786.41;5029205;28;20092;-68
2022/01/27 09:21:05;;;;;;;67.13;20.42;;;-1.10;99.90;;;-2.47;100.00;98784.16;5026910;28;20219;-67
2022/01/27 09:23:33;;;;;;;91.93;19.67;;;-1.10;99.90;;;-2.57;100.00;98816.09;5027013;28;20128;-67
2022/01/27 09:26:05;;;;;;;60.53;17.88;;;-1.10;99.90;;;-2.57;100.00;98783.91;5026449;28;20049;-67
2022/01/27 09:28:32;;;;;;;59.23;19.47;;;-1.10;99.90;;;-2.47;100.00;98786.72;5026501;28;20131;-67
2022/01/27 09:31:01;;;;;;;61.92;19.92;;;-1.10;99.90;;;-2.28;100.00;98786.44;5028344;28;20379;-68
2022/01/27 09:33:28;;;;;;;64.82;20.33;;;-1.10;99.90;;;-2.49;100.00;98789.19;5027356;28;20421;-67
2022/01/27 09:35:55;;;;;;;45.40;15.43;;;-1.00;99.90;;;-2.51;100.00;98798.47;5026589;28;20475;-67
2022/01/27 09:38:22;;;;;;;63.15;20.63;;;-1.00;99.90;;;-2.47;100.00;98790.09;5028519;28;20132;-67
2022/01/27 09:40:51;;;;;;;61.22;19.45;;;-1.00;99.90;;;-2.48;100.00;98778.22;5028305;28;20080;-68
2022/01/27 09:43:18;;;;;;;72.75;19.63;;;-1.00;99.90;;;-2.63;100.00;98793.88;5027203;28;20087;-67
2022/01/27 09:45:46;;;;;;;81.32;22.20;;;-0.90;99.90;;;-2.55;100.00;98795.00;5028472;28;20056;-66
2022/01/27 09:48:15;;;;;;;57.40;17.65;;;-0.90;99.90;;;-2.56;100.00;98800.00;5026561;28;20053;-68
2022/01/27 09:51:00;;;;;;;85.53;19.65;;;-1.00;99.90;;;-2.55;100.00;98812.78;5030202;28;20523;-66
2022/01/27 09:53:30;;;;;;;55.50;16.98;;;-1.00;99.90;;;-2.41;100.00;98791.97;5026423;28;20144;-67
2022/01/27 09:55:57;;;;;;;62.03;18.40;;;-1.00;99.90;;;-2.51;100.00;98808.63;5028981;28;20053;-67
2022/01/27 09:58:24;;;;;;;67.00;19.38;;;-1.00;99.90;;;-2.48;100.00;98808.75;5024272;28;20056;-67
2022/01/27 10:00:51;;;;;;;79.35;21.08;;;-1.00;99.90;;;-2.52;100.00;98807.78;5028092;28;20521;-68
2022/01/27 10:03:18;;;;;;;59.88;17.77;;;-1.00;99.90;;;-2.54;100.00;98803.47;5024031;28;20057;-68
2022/01/27 10:05:46;;;;;;;61.33;19.00;;;-1.00;99.90;;;-2.40;100.00;98771.66;5026993;28;20454;-68
2022/01/27 10:08:18;;;;;;;61.63;17.48;;;-1.00;99.90;;;-2.54;100.00;98803.47;5026520;28;20119;-67
2022/01/27 10:10:51;;;;;;;68.25;20.40;;;-1.00;99.90;;;-2.55;100.00;98782.28;5026022;28;20056;-66
2022/01/27 10:13:31;;;;;;;70.40;17.60;;;-1.00;99.90;;;-2.65;100.00;98795.53;5027142;28;20069;-68
2022/01/27 10:16:00;;;;;;;74.18;20.63;;;-1.00;99.90;;;-2.63;100.00;98782.88;5025720;28;20774;-68
2022/01/27 10:18:35;;;;;;;68.00;19.02;;;-1.00;99.90;;;-2.51;100.00;98773.03;5025237;28;20057;-71
2022/01/27 10:21:08;;;;;;;94.65;19.85;;;-1.00;99.90;;;-2.50;100.00;98786.63;5032134;28;20045;-67
2022/01/27 10:23:39;;;;;;;81.00;20.55;;;-1.00;99.90;;;-2.59;100.00;98787.22;5030131;28;20069;-67
2022/01/27 10:26:19;;;;;;;84.95;22.70;;;-0.90;99.90;;;-2.58;100.00;98787.28;5030814;28;20486;-67
2022/01/27 10:29:04;;;;;;;83.05;21.02;;;-1.00;99.90;;;-2.53;100.00;98800.13;5028919;28;20049;-67
2022/01/27 10:31:31;;;;;;;43.25;14.80;;;-1.00;99.90;;;-2.40;100.00;98771.66;5028705;28;20145;-68
2022/01/27 10:34:01;;;;;;;85.07;19.08;;;-1.00;99.90;;;-2.60;100.00;98760.97;5028956;28;20046;-67
2022/01/27 10:36:32;;;;;;;85.70;19.35;;;-1.00;99.90;;;-2.66;100.00;98786.19;5031907;28;20045;-67
2022/01/27 10:39:08;;;;;;;67.03;18.17;;;-1.00;99.90;;;-2.56;100.00;98772.91;5028057;28;20487;-68
2022/01/27 10:41:54;;;;;;;96.10;20.58;;;-1.00;99.90;;;-2.59;100.00;98775.38;5026558;28;20129;-67
2022/01/27 10:44:23;;;;;;;50.13;16.20;;;-1.00;99.90;;;-2.49;100.00;98776.50;5025123;28;20506;-66
2022/01/27 10:47:16;;;;;;;55.42;18.33;;;-0.90;99.90;;;-2.42;100.00;98773.28;5027471;28;20099;-67
2022/01/27 10:49:49;;;;;;;80.88;21.02;;;-0.90;99.90;;;-2.49;100.00;98773.09;5027050;28;20140;-68
2022/01/27 10:55:20;;;;;;;62.17;17.90;;;-0.90;99.90;;;-2.24;100.00;98769.56;5031645;28;20064;-66